createdAt,value
2019-03-04T00:00:23.332Z,7.80
2019-03-04T00:01:23.330Z,6.90
2019-03-04T00:02:26.678Z,6.50
2019-03-04T00:03:23.328Z,6.60
2019-03-04T00:04:23.303Z,7.80
2019-03-04T00:05:23.295Z,6.70
2019-03-04T00:06:23.276Z,5.90
2019-03-04T00:07:23.283Z,5.80
2019-03-04T00:08:23.269Z,6.90
2019-03-04T00:09:23.265Z,6.10
2019-03-04T00:10:23.225Z,5.50
2019-03-04T00:11:23.261Z,6.10
2019-03-04T00:12:23.207Z,6.20
2019-03-04T00:13:23.190Z,4.40
2019-03-04T00:14:23.201Z,6.80
2019-03-04T00:15:23.171Z,5.90
2019-03-04T00:16:23.169Z,5.10
2019-03-04T00:17:23.149Z,9.10
2019-03-04T00:18:23.190Z,7.00
2019-03-04T00:19:23.127Z,5.60
2019-03-04T00:20:23.120Z,6.00
2019-03-04T00:21:23.104Z,7.90
2019-03-04T00:22:23.098Z,8.50
2019-03-04T00:23:23.086Z,6.60
2019-03-04T00:24:23.085Z,7.20
2019-03-04T00:25:23.063Z,5.50
2019-03-04T00:26:23.056Z,7.90
2019-03-04T00:27:23.041Z,6.70
2019-03-04T00:28:23.050Z,6.10
2019-03-04T00:29:30.070Z,6.30
2019-03-04T00:30:23.013Z,8.80
2019-03-04T00:31:23.000Z,6.70
2019-03-04T00:32:22.985Z,9.70
2019-03-04T00:33:23.011Z,6.10
2019-03-04T00:34:22.978Z,6.60
2019-03-04T00:35:22.952Z,7.10
2019-03-04T00:36:22.944Z,6.90
2019-03-04T00:37:22.930Z,6.10
2019-03-04T00:38:22.921Z,4.70
2019-03-04T00:39:22.942Z,5.00
2019-03-04T00:40:22.906Z,5.70
2019-03-04T00:41:22.890Z,5.40
2019-03-04T00:42:22.884Z,7.20
2019-03-04T00:43:22.865Z,7.90
2019-03-04T00:44:22.858Z,4.30
2019-03-04T00:45:22.884Z,5.90
2019-03-04T00:46:22.830Z,5.70
2019-03-04T00:47:22.824Z,8.80
2019-03-04T00:48:22.809Z,6.00
2019-03-04T00:49:22.805Z,6.70
2019-03-04T00:50:22.790Z,6.50
2019-03-04T00:51:22.820Z,6.60
2019-03-04T00:52:22.771Z,6.10
2019-03-04T00:53:22.762Z,5.30
2019-03-04T00:54:22.749Z,6.60
2019-03-04T00:55:22.732Z,7.10
2019-03-04T00:56:22.727Z,8.20
2019-03-04T00:57:22.719Z,7.00
2019-03-04T00:58:22.700Z,6.30
2019-03-04T00:59:22.689Z,7.20
2019-03-04T01:00:22.681Z,5.10
2019-03-04T01:01:22.683Z,6.50
2019-03-04T01:02:22.662Z,5.80
2019-03-04T01:03:22.660Z,5.90
2019-03-04T01:04:22.639Z,7.30
2019-03-04T01:05:22.627Z,11.40
2019-03-04T01:06:22.618Z,6.80
2019-03-04T01:07:22.611Z,7.90
2019-03-04T01:08:22.593Z,7.00
2019-03-04T01:09:22.586Z,7.90
2019-03-04T01:10:22.574Z,8.80
2019-03-04T01:11:22.710Z,8.80
2019-03-04T01:12:22.555Z,6.30
2019-03-04T01:13:22.539Z,5.30
2019-03-04T01:14:22.528Z,7.40
2019-03-04T01:15:22.662Z,6.60
2019-03-04T01:16:22.509Z,8.40
2019-03-04T01:17:22.507Z,6.10
2019-03-04T01:18:22.485Z,6.20
2019-03-04T01:19:22.502Z,7.10
2019-03-04T01:20:22.469Z,6.50
2019-03-04T01:21:22.456Z,6.40
2019-03-04T01:22:22.439Z,5.80
2019-03-04T01:23:22.431Z,6.80
2019-03-04T01:24:22.419Z,6.60
2019-03-04T01:25:22.427Z,10.00
2019-03-04T01:26:22.403Z,5.30
2019-03-04T01:27:22.403Z,6.70
2019-03-04T01:28:22.380Z,11.00
2019-03-04T01:29:22.365Z,14.20
2019-03-04T01:30:22.460Z,16.80
2019-03-04T01:31:22.349Z,9.40
2019-03-04T01:32:22.337Z,5.10
2019-03-04T01:33:22.326Z,7.10
2019-03-04T01:34:22.310Z,5.90
2019-03-04T01:35:22.298Z,7.20
2019-03-04T01:36:22.310Z,7.90
2019-03-04T01:37:22.302Z,7.80
2019-03-04T01:38:22.275Z,5.80
2019-03-04T01:39:22.263Z,7.00
2019-03-04T01:40:22.250Z,6.80
2019-03-04T01:41:22.289Z,4.40
2019-03-04T01:42:22.239Z,6.10
2019-03-04T01:43:22.216Z,6.10
2019-03-04T01:44:22.210Z,6.60
2019-03-04T01:45:22.192Z,6.40
2019-03-04T01:46:22.180Z,5.90
2019-03-04T01:47:22.192Z,4.80
2019-03-04T01:48:22.176Z,7.70
2019-03-04T01:49:22.146Z,4.90
2019-03-04T01:50:22.143Z,6.40
2019-03-04T01:51:22.159Z,6.00
2019-03-04T01:52:22.121Z,8.00
2019-03-04T01:53:22.129Z,5.70
2019-03-04T01:54:22.098Z,5.10
2019-03-04T01:55:22.081Z,4.60
2019-03-04T01:56:22.122Z,5.90
2019-03-04T01:57:22.067Z,7.60
2019-03-04T01:58:22.052Z,5.20
2019-03-04T01:59:22.038Z,6.70
2019-03-04T02:00:22.033Z,6.10
2019-03-04T02:01:22.016Z,6.30
2019-03-04T02:02:22.019Z,4.50
2019-03-04T02:03:21.998Z,6.20
2019-03-04T02:04:21.990Z,6.70
2019-03-04T02:05:22.010Z,6.20
2019-03-04T02:06:21.970Z,5.40
2019-03-04T02:07:21.956Z,7.90
2019-03-04T02:08:21.944Z,5.60
2019-03-04T02:09:21.979Z,5.20
2019-03-04T02:10:21.917Z,4.70
2019-03-04T02:11:21.910Z,7.50
2019-03-04T02:12:21.901Z,5.90
2019-03-04T02:13:21.954Z,6.70
2019-03-04T02:14:21.891Z,6.90
2019-03-04T02:15:21.869Z,5.90
2019-03-04T02:16:21.855Z,5.20
2019-03-04T02:17:21.859Z,6.30
2019-03-04T02:18:21.838Z,6.20
2019-03-04T02:19:21.828Z,5.80
2019-03-04T02:20:21.813Z,7.70
2019-03-04T02:21:21.800Z,6.40
2019-03-04T02:22:21.788Z,6.60
2019-03-04T02:23:21.778Z,5.50
2019-03-04T02:24:21.819Z,7.10
2019-03-04T02:25:21.761Z,6.50
2019-03-04T02:26:21.747Z,7.60
2019-03-04T02:27:21.748Z,6.40
2019-03-04T02:28:21.729Z,7.40
2019-03-04T02:29:21.718Z,7.70
2019-03-04T02:30:21.713Z,6.70
2019-03-04T02:31:21.698Z,5.00
2019-03-04T02:32:21.686Z,7.30
2019-03-04T02:33:21.688Z,5.90
2019-03-04T02:34:21.707Z,7.40
2019-03-04T02:35:21.701Z,7.20
2019-03-04T02:36:21.644Z,6.60
2019-03-04T02:37:21.639Z,5.40
2019-03-04T02:38:21.623Z,7.40
2019-03-04T02:39:21.625Z,9.10
2019-03-04T02:40:21.597Z,6.70
2019-03-04T02:41:21.592Z,5.00
2019-03-04T02:42:21.578Z,6.10
2019-03-04T02:43:21.614Z,6.50
2019-03-04T02:44:21.618Z,5.80
2019-03-04T02:45:21.541Z,8.90
2019-03-04T02:46:21.536Z,6.70
2019-03-04T02:47:21.520Z,6.20
2019-03-04T02:48:21.516Z,7.40
2019-03-04T02:49:21.501Z,9.40
2019-03-04T02:50:21.525Z,7.30
2019-03-04T02:51:21.516Z,7.50
2019-03-04T02:52:21.470Z,7.00
2019-03-04T02:53:21.457Z,6.10
2019-03-04T02:54:21.444Z,8.00
2019-03-04T02:55:21.469Z,6.10
2019-03-04T02:56:21.420Z,4.20
2019-03-04T02:57:21.418Z,8.80
2019-03-04T02:58:21.404Z,5.20
2019-03-04T02:59:21.413Z,4.20
2019-03-04T03:00:21.428Z,6.10
2019-03-04T03:01:21.372Z,6.20
2019-03-04T03:02:21.359Z,6.80
2019-03-04T03:03:21.350Z,7.00
2019-03-04T03:04:21.338Z,4.60
2019-03-04T03:05:21.360Z,6.90
2019-03-04T03:06:21.319Z,5.60
2019-03-04T03:07:21.352Z,7.30
2019-03-04T03:08:21.296Z,5.90
2019-03-04T03:09:21.288Z,5.00
2019-03-04T03:10:21.268Z,6.50
2019-03-04T03:11:21.294Z,6.50
2019-03-04T03:12:21.283Z,7.20
2019-03-04T03:13:21.241Z,6.30
2019-03-04T03:14:21.229Z,6.60
2019-03-04T03:15:21.254Z,6.00
2019-03-04T03:16:21.209Z,6.30
2019-03-04T03:17:21.201Z,7.00
2019-03-04T03:18:21.218Z,6.70
2019-03-04T03:19:21.178Z,5.50
2019-03-04T03:20:21.166Z,5.80
2019-03-04T03:21:21.155Z,6.90
2019-03-04T03:22:21.209Z,8.90
2019-03-04T03:23:21.134Z,7.20
2019-03-04T03:24:21.131Z,6.50
2019-03-04T03:25:21.106Z,6.70
2019-03-04T03:26:21.106Z,5.80
2019-03-04T03:27:21.088Z,5.30
2019-03-04T03:28:21.109Z,6.80
2019-03-04T03:29:21.068Z,6.10
2019-03-04T03:30:21.725Z,5.70
2019-03-04T03:31:21.195Z,7.80
2019-03-04T03:32:21.037Z,6.10
2019-03-04T03:33:21.053Z,6.40
2019-03-04T03:34:21.033Z,4.50
2019-03-04T03:35:21.066Z,7.50
2019-03-04T03:36:20.994Z,5.80
2019-03-04T03:37:20.977Z,5.50
2019-03-04T03:38:20.971Z,7.50
2019-03-04T03:39:20.973Z,7.70
2019-03-04T03:40:21.067Z,6.10
2019-03-04T03:41:20.974Z,5.70
2019-03-04T03:42:20.929Z,5.70
2019-03-04T03:43:20.917Z,6.00
2019-03-04T03:44:20.908Z,6.60
2019-03-04T03:45:20.927Z,5.00
2019-03-04T03:46:20.892Z,4.20
2019-03-04T03:47:20.872Z,5.30
2019-03-04T03:48:20.865Z,6.30
2019-03-04T03:49:20.851Z,4.60
2019-03-04T03:50:20.848Z,6.00
2019-03-04T03:51:20.860Z,6.10
2019-03-04T03:52:20.815Z,6.70
2019-03-04T03:53:20.808Z,7.00
2019-03-04T03:54:20.797Z,6.30
2019-03-04T03:55:20.793Z,5.40
2019-03-04T03:56:20.843Z,6.90
2019-03-04T03:57:20.763Z,5.30
2019-03-04T03:58:20.751Z,4.80
2019-03-04T03:59:20.752Z,6.30
2019-03-04T04:00:20.739Z,7.10
2019-03-04T04:01:20.787Z,7.00
2019-03-04T04:02:20.713Z,8.80
2019-03-04T04:03:20.699Z,5.50
2019-03-04T04:04:20.713Z,7.10
2019-03-04T04:05:20.693Z,6.70
2019-03-04T04:06:20.667Z,5.60
2019-03-04T04:07:20.706Z,4.70
2019-03-04T04:08:20.647Z,4.80
2019-03-04T04:09:20.652Z,7.20
2019-03-04T04:10:20.623Z,5.70
2019-03-04T04:11:20.618Z,6.20
2019-03-04T04:12:20.695Z,5.30
2019-03-04T04:13:20.614Z,5.50
2019-03-04T04:14:20.582Z,7.50
2019-03-04T04:15:20.633Z,7.80
2019-03-04T04:16:20.560Z,10.00
2019-03-04T04:17:20.543Z,6.40
2019-03-04T04:18:20.571Z,5.60
2019-03-04T04:19:20.531Z,6.60
2019-03-04T04:20:20.520Z,5.50
2019-03-04T04:21:20.504Z,5.00
2019-03-04T04:22:20.496Z,4.60
2019-03-04T04:23:20.484Z,8.60
2019-03-04T04:24:20.525Z,6.20
2019-03-04T04:25:20.463Z,5.70
2019-03-04T04:26:20.452Z,6.50
2019-03-04T04:27:20.440Z,6.90
2019-03-04T04:28:20.464Z,5.30
2019-03-04T04:29:20.414Z,5.00
2019-03-04T04:30:20.408Z,6.80
2019-03-04T04:31:20.398Z,4.70
2019-03-04T04:32:20.381Z,6.60
2019-03-04T04:33:20.383Z,5.80
2019-03-04T04:34:20.436Z,6.00
2019-03-04T04:35:20.355Z,6.60
2019-03-04T04:36:20.347Z,5.50
2019-03-04T04:37:20.328Z,6.90
2019-03-04T04:38:20.328Z,5.50
2019-03-04T04:39:20.372Z,5.40
2019-03-04T04:40:20.302Z,7.50
2019-03-04T04:41:20.288Z,4.90
2019-03-04T04:42:20.271Z,4.80
2019-03-04T04:43:20.261Z,7.00
2019-03-04T04:44:20.260Z,5.10
2019-03-04T04:45:20.310Z,4.00
2019-03-04T04:46:20.228Z,6.30
2019-03-04T04:47:20.223Z,6.90
2019-03-04T04:48:20.222Z,5.60
2019-03-04T04:49:20.199Z,6.80
2019-03-04T04:50:20.186Z,5.80
2019-03-04T04:51:20.230Z,6.20
2019-03-04T04:52:20.162Z,7.50
2019-03-04T04:53:20.157Z,5.70
2019-03-04T04:54:20.141Z,6.30
2019-03-04T04:55:20.137Z,4.30
2019-03-04T04:56:20.173Z,5.60
2019-03-04T04:57:20.114Z,5.80
2019-03-04T04:58:20.126Z,6.50
2019-03-04T04:59:20.089Z,6.20
2019-03-04T05:00:20.086Z,4.30
2019-03-04T05:01:20.146Z,6.30
2019-03-04T05:02:20.153Z,4.70
2019-03-04T05:03:20.047Z,8.80
2019-03-04T05:04:20.036Z,4.50
2019-03-04T05:05:20.028Z,7.30
2019-03-04T05:06:20.017Z,5.80
2019-03-04T05:07:20.052Z,6.20
2019-03-04T05:08:19.993Z,5.60
2019-03-04T05:09:19.987Z,3.80
2019-03-04T05:10:19.978Z,4.80
2019-03-04T05:11:19.962Z,5.70
2019-03-04T05:12:19.982Z,8.70
2019-03-04T05:13:19.940Z,7.50
2019-03-04T05:14:19.931Z,6.00
2019-03-04T05:15:19.918Z,5.90
2019-03-04T05:16:19.906Z,5.60
2019-03-04T05:17:19.891Z,6.30
2019-03-04T05:18:19.914Z,5.30
2019-03-04T05:19:19.868Z,5.70
2019-03-04T05:20:19.862Z,7.10
2019-03-04T05:21:19.852Z,5.70
2019-03-04T05:22:19.849Z,6.30
2019-03-04T05:23:19.834Z,8.40
2019-03-04T05:24:19.828Z,7.70
2019-03-04T05:25:19.809Z,7.50
2019-03-04T05:26:19.800Z,7.00
2019-03-04T05:27:19.784Z,6.60
2019-03-04T05:28:19.779Z,7.10
2019-03-04T05:29:19.825Z,6.10
2019-03-04T05:30:19.756Z,7.30
2019-03-04T05:31:19.740Z,6.20
2019-03-04T05:32:19.734Z,5.00
2019-03-04T05:33:19.718Z,7.50
2019-03-04T05:34:19.755Z,7.20
2019-03-04T05:35:19.746Z,7.60
2019-03-04T05:36:19.687Z,6.50
2019-03-04T05:37:19.680Z,7.50
2019-03-04T05:38:19.662Z,6.30
2019-03-04T05:39:19.657Z,8.00
2019-03-04T05:40:19.689Z,7.60
2019-03-04T05:41:19.674Z,9.30
2019-03-04T05:42:19.621Z,10.10
2019-03-04T05:43:19.609Z,9.10
2019-03-04T05:44:19.602Z,8.90
2019-03-04T05:45:19.589Z,8.00
2019-03-04T05:46:19.576Z,9.70
2019-03-04T05:47:19.658Z,10.20
2019-03-04T05:48:19.555Z,5.30
2019-03-04T05:49:19.543Z,7.70
2019-03-04T05:50:19.535Z,5.20
2019-03-04T05:51:19.521Z,5.30
2019-03-04T05:52:19.507Z,7.00
2019-03-04T05:53:19.551Z,5.50
2019-03-04T05:54:19.525Z,7.00
2019-03-04T05:55:19.477Z,5.80
2019-03-04T05:56:19.465Z,7.30
2019-03-04T05:57:19.454Z,6.10
2019-03-04T05:58:19.463Z,5.90
2019-03-04T05:59:20.219Z,4.90
2019-03-04T06:00:19.487Z,7.30
2019-03-04T06:01:19.415Z,7.80
2019-03-04T06:02:19.420Z,7.30
2019-03-04T06:03:19.389Z,5.50
2019-03-04T06:04:19.382Z,6.60
2019-03-04T06:05:19.367Z,6.40
2019-03-04T06:06:19.391Z,5.40
2019-03-04T06:07:19.343Z,6.60
2019-03-04T06:08:19.340Z,6.60
2019-03-04T06:09:19.324Z,5.00
2019-03-04T06:10:19.316Z,6.30
2019-03-04T06:11:19.340Z,6.90
2019-03-04T06:12:19.294Z,5.20
2019-03-04T06:13:19.284Z,6.60
2019-03-04T06:14:19.271Z,4.60
2019-03-04T06:15:19.272Z,5.70
2019-03-04T06:16:19.283Z,5.20
2019-03-04T06:17:19.239Z,5.70
2019-03-04T06:18:19.224Z,7.50
2019-03-04T06:19:19.212Z,6.40
2019-03-04T06:20:19.206Z,5.60
2019-03-04T06:21:19.253Z,5.10
2019-03-04T06:22:19.186Z,4.70
2019-03-04T06:23:19.167Z,7.60
2019-03-04T06:24:19.157Z,6.80
2019-03-04T06:25:19.147Z,5.50
2019-03-04T06:26:19.199Z,6.30
2019-03-04T06:27:19.126Z,5.90
2019-03-04T06:28:19.121Z,6.50
2019-03-04T06:29:26.258Z,5.20
2019-03-04T06:30:19.101Z,5.70
2019-03-04T06:31:19.086Z,6.30
2019-03-04T06:32:19.132Z,4.40
2019-03-04T06:33:19.065Z,4.30
2019-03-04T06:34:19.050Z,5.50
2019-03-04T06:35:19.041Z,7.10
2019-03-04T06:36:19.032Z,5.80
2019-03-04T06:37:19.021Z,5.90
2019-03-04T06:38:19.041Z,5.80
2019-03-04T06:39:18.996Z,5.40
2019-03-04T06:40:18.987Z,6.80
2019-03-04T06:41:18.979Z,5.30
2019-03-04T06:42:18.966Z,4.90
2019-03-04T06:43:19.019Z,4.50
2019-03-04T06:44:18.946Z,4.80
2019-03-04T06:45:18.940Z,5.30
2019-03-04T06:46:18.920Z,6.60
2019-03-04T06:47:18.912Z,6.00
2019-03-04T06:48:18.897Z,4.70
2019-03-04T06:49:18.949Z,4.10
2019-03-04T06:50:18.880Z,5.00
2019-03-04T06:51:18.908Z,5.50
2019-03-04T06:52:18.871Z,5.50
2019-03-04T06:53:18.881Z,5.70
2019-03-04T06:54:18.830Z,4.20
2019-03-04T06:55:18.826Z,5.20
2019-03-04T06:56:18.837Z,8.10
2019-03-04T06:57:27.909Z,5.20
2019-03-04T06:58:19.822Z,5.50
2019-03-04T06:59:18.780Z,4.80
2019-03-04T07:00:18.772Z,5.20
2019-03-04T07:01:18.770Z,6.80
2019-03-04T07:02:18.753Z,5.80
2019-03-04T07:03:18.738Z,8.00
2019-03-04T07:04:18.758Z,6.50
2019-03-04T07:05:18.710Z,6.80
2019-03-04T07:06:18.703Z,5.50
2019-03-04T07:07:18.691Z,7.20
2019-03-04T07:08:18.679Z,5.40
2019-03-04T07:09:18.760Z,6.30
2019-03-04T07:10:18.656Z,5.40
2019-03-04T07:11:18.652Z,4.90
2019-03-04T07:12:18.641Z,5.80
2019-03-04T07:13:18.631Z,5.60
2019-03-04T07:14:18.622Z,5.50
2019-03-04T07:15:18.644Z,5.50
2019-03-04T07:16:18.590Z,3.80
2019-03-04T07:17:18.586Z,5.40
2019-03-04T07:18:18.571Z,5.60
2019-03-04T07:19:18.562Z,4.70
2019-03-04T07:20:18.547Z,4.30
2019-03-04T07:21:18.555Z,5.20
2019-03-04T07:22:18.545Z,4.20
2019-03-04T07:23:18.520Z,5.70
2019-03-04T07:24:19.238Z,6.40
2019-03-04T07:25:18.529Z,6.20
2019-03-04T07:26:18.490Z,4.50
2019-03-04T07:27:18.487Z,5.70
2019-03-04T07:28:18.464Z,4.60
2019-03-04T07:29:18.453Z,5.30
2019-03-04T07:30:18.440Z,4.30
2019-03-04T07:31:18.461Z,4.10
2019-03-04T07:32:18.414Z,4.20
2019-03-04T07:33:19.278Z,6.70
2019-03-04T07:34:18.397Z,6.20
2019-03-04T07:35:18.397Z,4.80
2019-03-04T07:36:18.375Z,6.90
2019-03-04T07:37:18.411Z,7.40
2019-03-04T07:38:18.353Z,6.50
2019-03-04T07:39:18.341Z,4.40
2019-03-04T07:40:18.331Z,4.00
2019-03-04T07:41:18.338Z,5.40
2019-03-04T07:42:18.336Z,3.90
2019-03-04T07:43:18.302Z,4.40
2019-03-04T07:44:18.284Z,5.60
2019-03-04T07:45:18.276Z,3.30
2019-03-04T07:46:18.261Z,6.20
2019-03-04T07:47:18.248Z,6.10
2019-03-04T07:48:18.260Z,3.10
2019-03-04T07:49:18.231Z,4.50
2019-03-04T07:50:18.220Z,6.80
2019-03-04T07:51:18.204Z,4.60
2019-03-04T07:52:18.222Z,4.20
2019-03-04T07:53:19.137Z,6.60
2019-03-04T07:54:18.179Z,5.40
2019-03-04T07:55:18.162Z,6.50
2019-03-04T07:56:18.154Z,4.80
2019-03-04T07:57:18.146Z,5.00
2019-03-04T07:58:18.148Z,5.20
2019-03-04T07:59:18.126Z,5.80
2019-03-04T08:00:18.107Z,5.70
2019-03-04T08:01:18.150Z,5.00
2019-03-04T08:02:18.120Z,6.20
2019-03-04T08:03:18.073Z,4.20
2019-03-04T08:04:18.113Z,6.60
2019-03-04T08:05:18.057Z,5.90
2019-03-04T08:06:18.039Z,5.60
2019-03-04T08:07:18.035Z,5.30
2019-03-04T08:08:18.016Z,5.60
2019-03-04T08:09:18.057Z,4.40
2019-03-04T08:10:17.999Z,4.50
2019-03-04T08:11:17.989Z,5.50
2019-03-04T08:12:17.979Z,5.20
2019-03-04T08:13:17.967Z,6.20
2019-03-04T08:14:18.004Z,4.80
2019-03-04T08:15:17.992Z,4.10
2019-03-04T08:16:17.936Z,6.10
2019-03-04T08:17:17.923Z,10.70
2019-03-04T08:18:17.907Z,8.00
2019-03-04T08:19:17.956Z,4.70
2019-03-04T08:20:17.888Z,3.80
2019-03-04T08:21:17.879Z,3.70
2019-03-04T08:22:17.932Z,5.10
2019-03-04T08:23:17.857Z,3.40
2019-03-04T08:24:17.854Z,4.20
2019-03-04T08:25:17.832Z,4.00
2019-03-04T08:26:17.823Z,4.10
2019-03-04T08:27:17.808Z,4.10
2019-03-04T08:28:17.834Z,5.50
2019-03-04T08:29:17.786Z,4.70
2019-03-04T08:30:17.813Z,4.70
2019-03-04T08:31:17.784Z,6.10
2019-03-04T08:32:17.764Z,4.50
2019-03-04T08:33:17.742Z,4.90
2019-03-04T08:34:17.743Z,5.70
2019-03-04T08:35:17.723Z,4.80
2019-03-04T08:36:17.764Z,4.90
2019-03-04T08:37:17.705Z,6.00
2019-03-04T08:38:17.702Z,4.40
2019-03-04T08:39:17.686Z,2.70
2019-03-04T08:40:17.667Z,5.00
2019-03-04T08:41:17.710Z,5.90
2019-03-04T08:42:17.690Z,7.10
2019-03-04T08:43:17.670Z,3.60
2019-03-04T08:44:17.623Z,6.20
2019-03-04T08:45:17.640Z,5.30
2019-03-04T08:46:17.605Z,5.90
2019-03-04T08:47:17.643Z,3.50
2019-03-04T08:48:17.583Z,6.60
2019-03-04T08:49:17.568Z,4.80
2019-03-04T08:50:17.559Z,3.60
2019-03-04T08:51:17.544Z,5.10
2019-03-04T08:52:17.603Z,4.30
2019-03-04T08:53:17.525Z,4.10
2019-03-04T08:54:17.517Z,4.00
2019-03-04T08:55:17.501Z,4.80
2019-03-04T08:56:17.514Z,3.10
2019-03-04T08:57:17.484Z,6.10
2019-03-04T08:58:17.522Z,5.00
2019-03-04T08:59:17.527Z,4.60
2019-03-04T09:00:17.447Z,5.70
2019-03-04T09:01:17.435Z,6.70
2019-03-04T09:02:17.426Z,5.20
2019-03-04T09:03:17.463Z,7.70
2019-03-04T09:04:17.408Z,5.30
2019-03-04T09:05:17.391Z,6.10
2019-03-04T09:06:17.383Z,6.40
2019-03-04T09:07:17.426Z,4.30
2019-03-04T09:08:17.403Z,4.60
2019-03-04T09:09:17.354Z,5.90
2019-03-04T09:10:17.343Z,6.70
2019-03-04T09:11:17.325Z,3.90
2019-03-04T09:12:17.316Z,5.90
2019-03-04T09:13:17.358Z,4.60
2019-03-04T09:14:17.365Z,5.80
2019-03-04T09:15:17.283Z,6.40
2019-03-04T09:16:17.278Z,4.50
2019-03-04T09:17:17.267Z,6.50
2019-03-04T09:18:17.256Z,4.40
2019-03-04T09:19:17.260Z,4.50
2019-03-04T09:20:17.234Z,6.70
2019-03-04T09:21:17.240Z,5.30
2019-03-04T09:22:17.210Z,3.20
2019-03-04T09:23:17.210Z,3.60
2019-03-04T09:24:17.190Z,7.20
2019-03-04T09:25:17.244Z,5.40
2019-03-04T09:26:17.169Z,3.90
2019-03-04T09:27:17.157Z,5.00
2019-03-04T09:28:17.144Z,6.90
2019-03-04T09:29:17.132Z,6.50
2019-03-04T09:30:17.183Z,3.80
2019-03-04T09:31:17.109Z,3.60
2019-03-04T09:32:17.100Z,3.50
2019-03-04T09:33:17.083Z,4.60
2019-03-04T09:34:17.083Z,4.60
2019-03-04T09:35:17.087Z,2.90
2019-03-04T09:36:17.147Z,3.00
2019-03-04T09:37:17.042Z,3.70
2019-03-04T09:38:17.037Z,4.00
2019-03-04T09:39:17.017Z,5.70
2019-03-04T09:40:17.011Z,7.10
2019-03-04T09:41:17.065Z,4.30
2019-03-04T09:42:16.985Z,3.20
2019-03-04T09:43:17.047Z,4.80
2019-03-04T09:44:16.971Z,3.90
2019-03-04T09:45:16.956Z,5.00
2019-03-04T09:46:16.977Z,3.50
2019-03-04T09:47:16.977Z,7.00
2019-03-04T09:48:16.924Z,3.80
2019-03-04T09:49:16.913Z,4.10
2019-03-04T09:50:16.905Z,3.50
2019-03-04T09:51:24.066Z,3.80
2019-03-04T09:52:17.884Z,4.20
2019-03-04T09:53:16.871Z,2.70
2019-03-04T09:54:16.859Z,5.90
2019-03-04T09:55:16.847Z,4.50
2019-03-04T09:56:16.867Z,2.90
2019-03-04T09:57:16.845Z,4.10
2019-03-04T09:58:16.814Z,3.40
2019-03-04T09:59:16.797Z,4.70
2019-03-04T10:00:16.786Z,4.10
2019-03-04T10:01:16.849Z,4.10
2019-03-04T10:02:16.858Z,2.50
2019-03-04T10:03:16.759Z,3.80
2019-03-04T10:04:16.743Z,4.70
2019-03-04T10:05:16.732Z,5.60
2019-03-04T10:06:16.726Z,4.90
2019-03-04T10:07:16.721Z,2.90
2019-03-04T10:08:16.827Z,3.80
2019-03-04T10:09:16.686Z,3.20
2019-03-04T10:10:16.679Z,4.60
2019-03-04T10:11:16.671Z,3.70
2019-03-04T10:12:16.685Z,4.30
2019-03-04T10:13:16.648Z,4.40
2019-03-04T10:14:16.702Z,3.00
2019-03-04T10:15:16.692Z,3.20
2019-03-04T10:16:18.987Z,3.70
2019-03-04T10:17:16.647Z,3.60
2019-03-04T10:18:16.597Z,3.40
2019-03-04T10:19:17.312Z,2.70
2019-03-04T10:20:16.570Z,3.80
2019-03-04T10:21:16.561Z,2.80
2019-03-04T10:22:16.550Z,4.70
2019-03-04T10:23:16.582Z,5.50
2019-03-04T10:24:16.528Z,6.00
2019-03-04T10:25:16.588Z,3.20
2019-03-04T10:26:22.572Z,3.70
2019-03-04T10:27:17.491Z,3.30
2019-03-04T10:28:16.528Z,2.10
2019-03-04T10:29:16.536Z,3.30
2019-03-04T10:30:16.480Z,2.20
2019-03-04T10:31:16.463Z,3.40
2019-03-04T10:32:16.443Z,5.70
2019-03-04T10:33:16.426Z,2.10
2019-03-04T10:34:16.467Z,3.80
2019-03-04T10:35:16.409Z,4.90
2019-03-04T10:36:16.397Z,1.10
2019-03-04T10:37:16.385Z,5.90
2019-03-04T10:38:22.623Z,4.40
2019-03-04T10:39:22.110Z,3.10
2019-03-04T10:40:16.356Z,3.90
2019-03-04T10:41:16.342Z,4.20
2019-03-04T10:42:16.333Z,3.70
2019-03-04T10:43:16.324Z,3.20
2019-03-04T10:44:16.358Z,2.20
2019-03-04T10:45:18.212Z,1.80
2019-03-04T10:46:16.291Z,4.30
2019-03-04T10:47:16.277Z,4.30
2019-03-04T10:48:16.327Z,4.20
2019-03-04T10:49:16.255Z,4.70
2019-03-04T10:50:16.254Z,2.70
2019-03-04T10:51:16.233Z,3.60
2019-03-04T10:52:16.219Z,2.00
2019-03-04T10:53:16.212Z,3.10
2019-03-04T10:54:16.253Z,4.70
2019-03-04T10:55:16.186Z,4.20
2019-03-04T10:56:16.183Z,3.20
2019-03-04T10:57:16.165Z,3.80
2019-03-04T10:58:16.157Z,2.80
2019-03-04T10:59:16.215Z,3.00
2019-03-04T11:00:16.146Z,3.00
2019-03-04T11:01:16.121Z,7.30
2019-03-04T11:02:16.123Z,6.20
2019-03-04T11:03:16.106Z,2.20
2019-03-04T11:04:16.093Z,8.70
2019-03-04T11:05:16.121Z,3.50
2019-03-04T11:06:16.119Z,5.80
2019-03-04T11:07:16.066Z,5.90
2019-03-04T11:08:16.044Z,2.40
2019-03-04T11:09:16.038Z,4.40
2019-03-04T11:10:16.092Z,5.10
2019-03-04T11:11:16.017Z,2.30
2019-03-04T11:12:16.000Z,3.20
2019-03-04T11:13:16.058Z,3.70
2019-03-04T11:14:15.981Z,6.20
2019-03-04T11:15:15.976Z,2.00
2019-03-04T11:16:15.959Z,1.30
2019-03-04T11:17:15.972Z,1.10
2019-03-04T11:18:15.937Z,1.60
2019-03-04T11:19:15.990Z,5.30
2019-03-04T11:20:15.918Z,3.70
2019-03-04T11:21:15.905Z,3.90
2019-03-04T11:22:15.921Z,3.50
2019-03-04T11:23:15.880Z,1.00
2019-03-04T11:24:15.873Z,1.70
2019-03-04T11:25:15.863Z,3.90
2019-03-04T11:26:15.851Z,3.00
2019-03-04T11:27:15.834Z,0.50
2019-03-04T11:28:15.895Z,3.00
2019-03-04T11:29:15.826Z,1.10
2019-03-04T11:30:15.820Z,2.40
2019-03-04T11:31:15.796Z,2.80
2019-03-04T11:32:15.873Z,4.00
2019-03-04T11:33:15.767Z,3.40
2019-03-04T11:34:15.763Z,1.30
2019-03-04T11:35:15.757Z,0.30
2019-03-04T11:36:15.759Z,0.60
2019-03-04T11:37:15.728Z,2.80
2019-03-04T11:38:15.765Z,1.40
2019-03-04T11:39:15.706Z,3.40
2019-03-04T11:40:15.697Z,1.30
2019-03-04T11:41:15.733Z,1.60
2019-03-04T11:42:15.676Z,2.50
2019-03-04T11:43:15.663Z,1.70
2019-03-04T11:44:15.715Z,0.80
2019-03-04T11:45:15.656Z,1.70
2019-03-04T11:46:15.630Z,2.50
2019-03-04T11:47:15.620Z,2.70
2019-03-04T11:48:15.658Z,1.30
2019-03-04T11:49:15.598Z,1.40
2019-03-04T11:50:15.582Z,3.30
2019-03-04T11:51:15.638Z,1.00
2019-03-04T11:52:15.564Z,1.40
2019-03-04T11:53:15.557Z,5.20
2019-03-04T11:54:15.573Z,3.50
2019-03-04T11:55:15.535Z,1.80
2019-03-04T11:56:15.517Z,1.20
2019-03-04T11:57:15.510Z,2.40
2019-03-04T11:58:15.570Z,2.70
2019-03-04T11:59:15.500Z,4.70
2019-03-04T12:00:15.541Z,4.90
2019-03-04T12:01:15.461Z,1.90
2019-03-04T12:02:15.463Z,1.50
2019-03-04T12:03:15.447Z,2.20
2019-03-04T12:04:15.433Z,2.40
2019-03-04T12:05:15.488Z,4.90
2019-03-04T12:06:15.473Z,11.00
2019-03-04T12:07:15.397Z,6.30
2019-03-04T12:08:15.389Z,1.50
2019-03-04T12:09:15.378Z,0.80
2019-03-04T12:10:15.370Z,1.00
2019-03-04T12:11:15.426Z,2.70
2019-03-04T12:12:15.347Z,1.60
2019-03-04T12:13:15.337Z,3.10
2019-03-04T12:14:15.321Z,2.40
2019-03-04T12:15:15.308Z,2.10
2019-03-04T12:16:15.299Z,1.50
2019-03-04T12:17:15.356Z,2.30
2019-03-04T12:18:15.276Z,1.10
2019-03-04T12:19:15.476Z,0.80
2019-03-04T12:20:15.258Z,2.60
2019-03-04T12:21:15.243Z,1.70
2019-03-04T12:22:15.304Z,1.90
2019-03-04T12:23:15.247Z,2.40
2019-03-04T12:24:15.231Z,1.50
2019-03-04T12:25:15.210Z,4.30
2019-03-04T12:26:15.222Z,2.20
2019-03-04T12:27:15.230Z,4.00
2019-03-04T12:28:15.173Z,2.80
2019-03-04T12:29:15.160Z,2.00
2019-03-04T12:30:23.863Z,1.70
2019-03-04T12:31:15.140Z,2.10
2019-03-04T12:32:15.154Z,1.00
2019-03-04T12:33:15.119Z,1.60
2019-03-04T12:34:24.260Z,1.40
2019-03-04T12:35:16.088Z,1.20
2019-03-04T12:36:15.078Z,0.70
2019-03-04T12:37:15.121Z,2.00
2019-03-04T12:38:15.058Z,2.10
2019-03-04T12:39:15.051Z,2.30
2019-03-04T12:40:15.061Z,2.00
2019-03-04T12:41:15.029Z,1.60
2019-03-04T12:42:15.050Z,1.20
2019-03-04T12:43:15.004Z,1.60
2019-03-04T12:44:14.990Z,2.60
2019-03-04T12:45:14.982Z,2.70
2019-03-04T12:46:14.973Z,0.80
2019-03-04T12:47:16.417Z,3.20
2019-03-04T12:48:15.017Z,1.70
2019-03-04T12:49:14.980Z,2.30
2019-03-04T12:50:14.953Z,1.90
2019-03-04T12:51:22.802Z,1.40
2019-03-04T12:52:15.906Z,0.80
2019-03-04T12:53:14.943Z,2.10
2019-03-04T12:54:14.950Z,2.40
2019-03-04T12:55:14.875Z,1.70
2019-03-04T12:56:14.859Z,2.10
2019-03-04T12:57:14.860Z,2.90
2019-03-04T12:58:14.894Z,1.20
2019-03-04T12:59:14.833Z,1.40
2019-03-04T13:00:14.824Z,2.50
2019-03-04T13:01:14.805Z,2.20
2019-03-04T13:02:14.845Z,2.30
2019-03-04T13:03:14.783Z,1.80
2019-03-04T13:04:14.823Z,1.30
2019-03-04T13:05:14.764Z,2.40
2019-03-04T13:06:14.751Z,4.10
2019-03-04T13:07:14.744Z,2.30
2019-03-04T13:08:14.727Z,1.60
2019-03-04T13:09:14.965Z,2.80
2019-03-04T13:10:14.784Z,2.00
2019-03-04T13:11:14.701Z,0.60
2019-03-04T13:12:14.689Z,2.20
2019-03-04T13:13:14.682Z,0.90
2019-03-04T13:14:14.717Z,4.40
2019-03-04T13:15:14.657Z,2.50
2019-03-04T13:16:14.649Z,2.30
2019-03-04T13:17:14.635Z,2.80
2019-03-04T13:18:14.620Z,2.40